sensor_id;sensor_type;location;lat;lon;timestamp;pressure;altitude;pressure_sealevel;temperature;humidity
22031;BME280;11179;52.106;21.024;2023-12-28T00:01:36;100865.25;;;0.33;69.63
22031;BME280;11179;52.106;21.024;2023-12-28T00:04:01;100856.00;;;0.28;69.59
22031;BME280;11179;52.106;21.024;2023-12-28T00:06:26;100857.22;;;0.25;69.80
22031;BME280;11179;52.106;21.024;2023-12-28T00:08:52;100865.19;;;0.19;69.91
22031;BME280;11179;52.106;21.024;2023-12-28T00:11:17;100862.81;;;0.24;69.64
22031;BME280;11179;52.106;21.024;2023-12-28T00:13:42;100838.50;;;0.24;69.95
22031;BME280;11179;52.106;21.024;2023-12-28T00:16:08;100834.97;;;0.23;69.81
22031;BME280;11179;52.106;21.024;2023-12-28T00:18:33;100829.72;;;0.22;69.95
22031;BME280;11179;52.106;21.024;2023-12-28T00:20:58;100830.56;;;0.22;69.93
22031;BME280;11179;52.106;21.024;2023-12-28T00:23:24;100830.56;;;0.22;70.04
22031;BME280;11179;52.106;21.024;2023-12-28T00:25:49;100827.53;;;0.25;69.97
22031;BME280;11179;52.106;21.024;2023-12-28T00:28:14;100831.91;;;0.26;69.88
22031;BME280;11179;52.106;21.024;2023-12-28T00:30:40;100805.13;;;0.17;69.97
22031;BME280;11179;52.106;21.024;2023-12-28T00:33:05;100824.19;;;0.15;70.18
22031;BME280;11179;52.106;21.024;2023-12-28T00:35:30;100817.50;;;0.11;70.09
22031;BME280;11179;52.106;21.024;2023-12-28T00:37:56;100815.63;;;0.11;70.30
22031;BME280;11179;52.106;21.024;2023-12-28T00:40:21;100823.84;;;0.18;70.27
22031;BME280;11179;52.106;21.024;2023-12-28T00:42:47;100833.81;;;0.18;70.45
22031;BME280;11179;52.106;21.024;2023-12-28T00:45:12;100843.91;;;0.24;70.45
22031;BME280;11179;52.106;21.024;2023-12-28T00:47:38;100841.88;;;0.26;70.48
22031;BME280;11179;52.106;21.024;2023-12-28T00:50:03;100841.66;;;0.27;70.50
22031;BME280;11179;52.106;21.024;2023-12-28T00:52:29;100847.72;;;0.29;70.41
22031;BME280;11179;52.106;21.024;2023-12-28T00:54:54;100844.84;;;0.31;70.29
22031;BME280;11179;52.106;21.024;2023-12-28T00:57:19;100826.13;;;0.29;70.40
22031;BME280;11179;52.106;21.024;2023-12-28T00:59:45;100823.81;;;0.26;70.38
22031;BME280;11179;52.106;21.024;2023-12-28T01:02:10;100823.59;;;0.28;70.33
22031;BME280;11179;52.106;21.024;2023-12-28T01:04:35;100816.06;;;0.23;70.46
22031;BME280;11179;52.106;21.024;2023-12-28T01:07:01;100805.25;;;0.23;70.62
22031;BME280;11179;52.106;21.024;2023-12-28T01:09:28;100807.28;;;0.21;70.46
22031;BME280;11179;52.106;21.024;2023-12-28T01:11:53;100805.06;;;0.25;70.37
22031;BME280;11179;52.106;21.024;2023-12-28T01:14:19;100804.09;;;0.18;70.44
22031;BME280;11179;52.106;21.024;2023-12-28T01:16:44;100792.63;;;0.15;70.58
22031;BME280;11179;52.106;21.024;2023-12-28T01:19:10;100793.78;;;0.21;70.67
22031;BME280;11179;52.106;21.024;2023-12-28T01:21:35;100783.34;;;0.18;70.47
22031;BME280;11179;52.106;21.024;2023-12-28T01:24:01;100778.69;;;0.12;70.84
22031;BME280;11179;52.106;21.024;2023-12-28T01:26:26;100790.09;;;0.14;70.69
22031;BME280;11179;52.106;21.024;2023-12-28T01:28:51;100780.72;;;0.10;70.91
22031;BME280;11179;52.106;21.024;2023-12-28T01:31:16;100774.94;;;0.13;70.76
22031;BME280;11179;52.106;21.024;2023-12-28T01:33:42;100778.28;;;0.15;70.81
22031;BME280;11179;52.106;21.024;2023-12-28T01:36:17;100770.84;;;0.17;70.71
22031;BME280;11179;52.106;21.024;2023-12-28T01:38:43;100769.84;;;0.18;71.05
22031;BME280;11179;52.106;21.024;2023-12-28T01:41:08;100768.47;;;0.22;70.94
22031;BME280;11179;52.106;21.024;2023-12-28T01:43:34;100756.28;;;0.26;70.84
22031;BME280;11179;52.106;21.024;2023-12-28T01:45:59;100754.81;;;0.38;70.47
22031;BME280;11179;52.106;21.024;2023-12-28T01:48:24;100747.34;;;0.40;70.59
22031;BME280;11179;52.106;21.024;2023-12-28T01:50:50;100749.41;;;0.38;70.29
22031;BME280;11179;52.106;21.024;2023-12-28T01:53:15;100737.78;;;0.38;70.58
22031;BME280;11179;52.106;21.024;2023-12-28T01:55:40;100749.03;;;0.41;70.55
22031;BME280;11179;52.106;21.024;2023-12-28T01:58:06;100748.94;;;0.35;70.31
22031;BME280;11179;52.106;21.024;2023-12-28T02:00:31;100734.41;;;0.36;70.34
22031;BME280;11179;52.106;21.024;2023-12-28T02:02:57;100735.25;;;0.36;70.51
22031;BME280;11179;52.106;21.024;2023-12-28T02:05:24;100726.13;;;0.37;70.44
22031;BME280;11179;52.106;21.024;2023-12-28T02:07:49;100703.84;;;0.35;70.48
22031;BME280;11179;52.106;21.024;2023-12-28T02:10:14;100698.47;;;0.35;70.34
22031;BME280;11179;52.106;21.024;2023-12-28T02:12:40;100684.00;;;0.28;70.44
22031;BME280;11179;52.106;21.024;2023-12-28T02:15:06;100674.03;;;0.29;70.18
22031;BME280;11179;52.106;21.024;2023-12-28T02:17:55;100670.31;;;0.30;70.67
22031;BME280;11179;52.106;21.024;2023-12-28T02:20:24;100664.63;;;0.25;70.51
22031;BME280;11179;52.106;21.024;2023-12-28T02:22:50;100643.88;;;0.25;70.66
22031;BME280;11179;52.106;21.024;2023-12-28T02:25:16;100663.03;;;0.30;70.64
22031;BME280;11179;52.106;21.024;2023-12-28T02:27:46;100647.03;;;0.29;70.57
22031;BME280;11179;52.106;21.024;2023-12-28T02:30:15;100641.25;;;0.32;70.66
22031;BME280;11179;52.106;21.024;2023-12-28T02:35:37;100633.44;;;0.37;70.62
22031;BME280;11179;52.106;21.024;2023-12-28T02:38:12;100644.50;;;0.42;70.71
22031;BME280;11179;52.106;21.024;2023-12-28T02:40:40;100636.88;;;0.45;70.59
22031;BME280;11179;52.106;21.024;2023-12-28T02:43:06;100646.31;;;0.49;70.51
22031;BME280;11179;52.106;21.024;2023-12-28T02:45:31;100644.88;;;0.54;70.60
22031;BME280;11179;52.106;21.024;2023-12-28T02:47:59;100639.31;;;0.55;70.42
22031;BME280;11179;52.106;21.024;2023-12-28T02:50:25;100633.91;;;0.55;70.58
22031;BME280;11179;52.106;21.024;2023-12-28T02:52:50;100589.47;;;0.43;70.27
22031;BME280;11179;52.106;21.024;2023-12-28T02:55:15;100608.13;;;0.53;70.63
22031;BME280;11179;52.106;21.024;2023-12-28T02:57:40;100620.56;;;0.68;69.95
22031;BME280;11179;52.106;21.024;2023-12-28T03:00:07;100617.69;;;0.70;70.30
22031;BME280;11179;52.106;21.024;2023-12-28T03:02:35;100603.91;;;0.65;70.19
22031;BME280;11179;52.106;21.024;2023-12-28T03:05:01;100611.72;;;0.74;70.20
22031;BME280;11179;52.106;21.024;2023-12-28T03:07:26;100593.66;;;0.75;70.28
22031;BME280;11179;52.106;21.024;2023-12-28T03:09:51;100586.19;;;0.77;70.00
22031;BME280;11179;52.106;21.024;2023-12-28T03:12:16;100596.59;;;0.80;70.25
22031;BME280;11179;52.106;21.024;2023-12-28T03:14:42;100587.47;;;0.81;70.10
22031;BME280;11179;52.106;21.024;2023-12-28T03:17:07;100569.97;;;0.77;69.83
22031;BME280;11179;52.106;21.024;2023-12-28T03:19:33;100568.28;;;0.76;69.89
22031;BME280;11179;52.106;21.024;2023-12-28T03:21:58;100566.16;;;0.71;70.03
22031;BME280;11179;52.106;21.024;2023-12-28T03:24:23;100563.72;;;0.76;69.84
22031;BME280;11179;52.106;21.024;2023-12-28T03:26:49;100581.44;;;0.79;69.61
22031;BME280;11179;52.106;21.024;2023-12-28T03:29:14;100580.78;;;0.77;69.70
22031;BME280;11179;52.106;21.024;2023-12-28T03:31:40;100569.97;;;0.77;69.70
22031;BME280;11179;52.106;21.024;2023-12-28T03:34:06;100567.44;;;0.75;69.65
22031;BME280;11179;52.106;21.024;2023-12-28T03:36:31;100557.66;;;0.74;69.51
22031;BME280;11179;52.106;21.024;2023-12-28T03:38:56;100544.06;;;0.68;69.54
22031;BME280;11179;52.106;21.024;2023-12-28T03:41:22;100556.88;;;0.80;69.60
22031;BME280;11179;52.106;21.024;2023-12-28T03:43:47;100549.84;;;0.79;69.43
22031;BME280;11179;52.106;21.024;2023-12-28T03:46:13;100551.69;;;0.79;69.16
22031;BME280;11179;52.106;21.024;2023-12-28T03:48:39;100519.38;;;0.71;69.30
22031;BME280;11179;52.106;21.024;2023-12-28T03:51:04;100528.00;;;0.81;69.02
22031;BME280;11179;52.106;21.024;2023-12-28T03:53:30;100519.81;;;0.74;69.06
22031;BME280;11179;52.106;21.024;2023-12-28T03:55:58;100532.97;;;0.77;69.06
22031;BME280;11179;52.106;21.024;2023-12-28T03:58:24;100528.78;;;0.75;69.19
22031;BME280;11179;52.106;21.024;2023-12-28T04:00:49;100515.06;;;0.76;68.97
22031;BME280;11179;52.106;21.024;2023-12-28T04:03:15;100487.44;;;0.60;68.99
22031;BME280;11179;52.106;21.024;2023-12-28T04:05:40;100494.78;;;0.66;68.63
22031;BME280;11179;52.106;21.024;2023-12-28T04:08:05;100521.31;;;0.77;68.98
22031;BME280;11179;52.106;21.024;2023-12-28T04:10:34;100500.06;;;0.74;68.80
22031;BME280;11179;52.106;21.024;2023-12-28T04:13:02;100486.09;;;0.70;68.47
22031;BME280;11179;52.106;21.024;2023-12-28T04:15:27;100489.72;;;0.77;68.52
22031;BME280;11179;52.106;21.024;2023-12-28T04:17:53;100496.41;;;0.81;68.66
22031;BME280;11179;52.106;21.024;2023-12-28T04:20:18;100480.78;;;0.77;68.42
22031;BME280;11179;52.106;21.024;2023-12-28T04:22:43;100471.38;;;0.73;68.26
22031;BME280;11179;52.106;21.024;2023-12-28T04:25:09;100468.47;;;0.74;68.18
22031;BME280;11179;52.106;21.024;2023-12-28T04:27:35;100462.88;;;0.76;68.16
22031;BME280;11179;52.106;21.024;2023-12-28T04:30:00;100464.56;;;0.77;68.01
22031;BME280;11179;52.106;21.024;2023-12-28T04:32:26;100467.63;;;0.74;67.95
22031;BME280;11179;52.106;21.024;2023-12-28T04:34:52;100463.72;;;0.76;68.02
22031;BME280;11179;52.106;21.024;2023-12-28T04:37:19;100452.81;;;0.70;67.72
22031;BME280;11179;52.106;21.024;2023-12-28T04:39:44;100460.56;;;0.73;67.75
22031;BME280;11179;52.106;21.024;2023-12-28T04:42:09;100463.06;;;0.74;67.77
22031;BME280;11179;52.106;21.024;2023-12-28T04:44:38;100453.66;;;0.70;67.50
22031;BME280;11179;52.106;21.024;2023-12-28T04:47:04;100442.03;;;0.70;67.69
22031;BME280;11179;52.106;21.024;2023-12-28T04:49:30;100445.09;;;0.67;67.68
22031;BME280;11179;52.106;21.024;2023-12-28T04:51:55;100449.94;;;0.71;67.49
22031;BME280;11179;52.106;21.024;2023-12-28T04:54:21;100434.28;;;0.67;67.71
22031;BME280;11179;52.106;21.024;2023-12-28T04:56:46;100428.88;;;0.67;67.58
22031;BME280;11179;52.106;21.024;2023-12-28T04:59:12;100425.16;;;0.68;67.41
22031;BME280;11179;52.106;21.024;2023-12-28T05:01:44;100418.91;;;0.67;67.53
22031;BME280;11179;52.106;21.024;2023-12-28T05:04:10;100419.56;;;0.69;67.72
22031;BME280;11179;52.106;21.024;2023-12-28T05:06:36;100411.88;;;0.66;67.33
22031;BME280;11179;52.106;21.024;2023-12-28T05:09:02;100414.56;;;0.66;67.55
22031;BME280;11179;52.106;21.024;2023-12-28T05:11:28;100404.78;;;0.65;67.33
22031;BME280;11179;52.106;21.024;2023-12-28T05:13:53;100404.38;;;0.68;67.19
22031;BME280;11179;52.106;21.024;2023-12-28T05:16:19;100398.53;;;0.65;67.19
22031;BME280;11179;52.106;21.024;2023-12-28T05:18:45;100391.88;;;0.67;67.27
22031;BME280;11179;52.106;21.024;2023-12-28T05:21:11;100387.31;;;0.68;66.98
22031;BME280;11179;52.106;21.024;2023-12-28T05:23:37;100381.91;;;0.68;67.10
22031;BME280;11179;52.106;21.024;2023-12-28T05:26:02;100382.94;;;0.67;67.26
22031;BME280;11179;52.106;21.024;2023-12-28T05:28:27;100371.34;;;0.66;67.14
22031;BME280;11179;52.106;21.024;2023-12-28T05:30:53;100378.19;;;0.69;67.21
22031;BME280;11179;52.106;21.024;2023-12-28T05:33:18;100351.88;;;0.56;67.04
22031;BME280;11179;52.106;21.024;2023-12-28T05:35:43;100335.69;;;0.56;66.98
22031;BME280;11179;52.106;21.024;2023-12-28T05:38:09;100347.63;;;0.68;66.82
22031;BME280;11179;52.106;21.024;2023-12-28T05:40:35;100336.19;;;0.66;66.83
22031;BME280;11179;52.106;21.024;2023-12-28T05:43:00;100326.63;;;0.64;66.97
22031;BME280;11179;52.106;21.024;2023-12-28T05:45:25;100325.19;;;0.68;66.66
22031;BME280;11179;52.106;21.024;2023-12-28T05:47:50;100310.78;;;0.61;66.86
22031;BME280;11179;52.106;21.024;2023-12-28T05:50:16;100305.84;;;0.64;66.62
22031;BME280;11179;52.106;21.024;2023-12-28T05:52:41;100320.00;;;0.66;66.67
22031;BME280;11179;52.106;21.024;2023-12-28T05:55:07;100315.19;;;0.68;66.67
22031;BME280;11179;52.106;21.024;2023-12-28T05:57:33;100312.31;;;0.70;66.75
22031;BME280;11179;52.106;21.024;2023-12-28T05:59:58;100310.00;;;0.67;66.85
22031;BME280;11179;52.106;21.024;2023-12-28T06:02:23;100309.59;;;0.70;66.57
22031;BME280;11179;52.106;21.024;2023-12-28T06:04:49;100306.91;;;0.70;66.75
22031;BME280;11179;52.106;21.024;2023-12-28T06:07:14;100302.13;;;0.72;66.57
22031;BME280;11179;52.106;21.024;2023-12-28T06:09:40;100289.44;;;0.66;66.44
22031;BME280;11179;52.106;21.024;2023-12-28T06:12:05;100297.19;;;0.75;66.40
22031;BME280;11179;52.106;21.024;2023-12-28T06:14:31;100307.63;;;0.78;66.47
22031;BME280;11179;52.106;21.024;2023-12-28T06:16:56;100301.38;;;0.78;66.31
22031;BME280;11179;52.106;21.024;2023-12-28T06:19:22;100305.97;;;0.84;66.57
22031;BME280;11179;52.106;21.024;2023-12-28T06:21:50;100314.34;;;0.89;66.21
22031;BME280;11179;52.106;21.024;2023-12-28T06:24:15;100303.16;;;0.92;66.27
22031;BME280;11179;52.106;21.024;2023-12-28T06:26:41;100291.50;;;0.92;66.08
22031;BME280;11179;52.106;21.024;2023-12-28T06:29:07;100314.81;;;0.99;66.13
22031;BME280;11179;52.106;21.024;2023-12-28T06:31:33;100307.09;;;0.96;66.08
22031;BME280;11179;52.106;21.024;2023-12-28T06:34:02;100318.16;;;1.01;66.11
22031;BME280;11179;52.106;21.024;2023-12-28T06:36:27;100301.47;;;0.91;65.98
22031;BME280;11179;52.106;21.024;2023-12-28T06:38:52;100311.47;;;0.97;66.01
22031;BME280;11179;52.106;21.024;2023-12-28T06:41:18;100316.50;;;1.00;65.87
22031;BME280;11179;52.106;21.024;2023-12-28T06:43:43;100317.06;;;0.96;65.88
22031;BME280;11179;52.106;21.024;2023-12-28T06:46:08;100322.94;;;0.99;65.90
22031;BME280;11179;52.106;21.024;2023-12-28T06:48:34;100325.06;;;1.04;65.96
22031;BME280;11179;52.106;21.024;2023-12-28T06:50:59;100315.28;;;1.03;66.04
22031;BME280;11179;52.106;21.024;2023-12-28T06:53:25;100281.00;;;0.82;65.85
22031;BME280;11179;52.106;21.024;2023-12-28T06:55:50;100301.56;;;0.55;67.61
22031;BME280;11179;52.106;21.024;2023-12-28T06:58:15;100286.69;;;0.38;67.96
22031;BME280;11179;52.106;21.024;2023-12-28T07:00:40;100295.88;;;0.43;68.26
22031;BME280;11179;52.106;21.024;2023-12-28T07:03:06;100305.25;;;0.47;68.18
22031;BME280;11179;52.106;21.024;2023-12-28T07:05:32;100293.63;;;0.47;68.34
22031;BME280;11179;52.106;21.024;2023-12-28T07:07:57;100309.03;;;0.53;68.50
22031;BME280;11179;52.106;21.024;2023-12-28T07:10:23;100302.03;;;0.59;68.39
22031;BME280;11179;52.106;21.024;2023-12-28T07:12:48;100301.28;;;0.65;68.38
22031;BME280;11179;52.106;21.024;2023-12-28T07:15:14;100289.22;;;0.67;68.38
22031;BME280;11179;52.106;21.024;2023-12-28T07:17:40;100296.34;;;0.75;68.52
22031;BME280;11179;52.106;21.024;2023-12-28T07:20:05;100287.25;;;0.82;68.71
22031;BME280;11179;52.106;21.024;2023-12-28T07:22:31;100281.72;;;0.91;68.53
22031;BME280;11179;52.106;21.024;2023-12-28T07:24:56;100275.94;;;1.00;68.70
22031;BME280;11179;52.106;21.024;2023-12-28T07:27:21;100277.84;;;1.06;68.56
22031;BME280;11179;52.106;21.024;2023-12-28T07:29:50;100279.38;;;1.15;68.33
22031;BME280;11179;52.106;21.024;2023-12-28T07:32:15;100287.38;;;1.30;68.32
22031;BME280;11179;52.106;21.024;2023-12-28T07:34:40;100280.53;;;1.41;68.26
22031;BME280;11179;52.106;21.024;2023-12-28T07:37:06;100267.66;;;1.49;68.09
22031;BME280;11179;52.106;21.024;2023-12-28T07:39:31;100265.44;;;1.66;67.83
22031;BME280;11179;52.106;21.024;2023-12-28T07:41:56;100252.38;;;1.76;67.79
22031;BME280;11179;52.106;21.024;2023-12-28T07:44:22;100259.88;;;1.87;67.54
22031;BME280;11179;52.106;21.024;2023-12-28T07:46:47;100250.09;;;1.86;67.68
22031;BME280;11179;52.106;21.024;2023-12-28T07:49:12;100276.19;;;2.14;67.43
22031;BME280;11179;52.106;21.024;2023-12-28T07:51:37;100255.81;;;2.24;67.19
22031;BME280;11179;52.106;21.024;2023-12-28T07:54:03;100248.72;;;2.37;67.14
22031;BME280;11179;52.106;21.024;2023-12-28T07:56:28;100258.09;;;2.47;66.86
22031;BME280;11179;52.106;21.024;2023-12-28T07:58:54;100248.09;;;2.54;66.91
22031;BME280;11179;52.106;21.024;2023-12-28T08:01:19;100244.34;;;2.69;66.64
22031;BME280;11179;52.106;21.024;2023-12-28T08:03:45;100246.84;;;2.77;66.51
22031;BME280;11179;52.106;21.024;2023-12-28T08:06:10;100257.47;;;2.85;66.51
22031;BME280;11179;52.106;21.024;2023-12-28T08:08:37;100261.00;;;2.98;66.57
22031;BME280;11179;52.106;21.024;2023-12-28T08:11:03;100259.91;;;3.06;66.05
22031;BME280;11179;52.106;21.024;2023-12-28T08:13:28;100264.94;;;3.03;66.44
22031;BME280;11179;52.106;21.024;2023-12-28T08:15:54;100258.03;;;3.13;66.12
22031;BME280;11179;52.106;21.024;2023-12-28T08:18:19;100271.53;;;3.33;66.23
22031;BME280;11179;52.106;21.024;2023-12-28T08:20:44;100289.88;;;3.51;65.99
22031;BME280;11179;52.106;21.024;2023-12-28T08:23:10;100236.09;;;3.28;65.67
22031;BME280;11179;52.106;21.024;2023-12-28T08:25:35;100270.63;;;3.59;65.62
22031;BME280;11179;52.106;21.024;2023-12-28T08:28:00;100274.78;;;3.68;65.84
22031;BME280;11179;52.106;21.024;2023-12-28T08:30:26;100250.06;;;3.76;65.59
22031;BME280;11179;52.106;21.024;2023-12-28T08:32:52;100252.09;;;3.87;65.51
22031;BME280;11179;52.106;21.024;2023-12-28T08:35:18;100242.50;;;3.91;65.34
22031;BME280;11179;52.106;21.024;2023-12-28T08:37:43;100244.53;;;4.02;65.35
22031;BME280;11179;52.106;21.024;2023-12-28T08:40:09;100221.75;;;4.03;65.26
22031;BME280;11179;52.106;21.024;2023-12-28T08:42:34;100227.69;;;4.19;65.10
22031;BME280;11179;52.106;21.024;2023-12-28T08:45:00;100237.19;;;4.34;65.22
22031;BME280;11179;52.106;21.024;2023-12-28T08:47:25;100234.88;;;4.38;64.88
22031;BME280;11179;52.106;21.024;2023-12-28T08:49:50;100237.81;;;4.36;64.71
22031;BME280;11179;52.106;21.024;2023-12-28T08:52:16;100235.03;;;4.43;64.82
22031;BME280;11179;52.106;21.024;2023-12-28T08:54:41;100249.56;;;4.55;64.79
22031;BME280;11179;52.106;21.024;2023-12-28T08:57:06;100228.88;;;4.54;64.54
22031;BME280;11179;52.106;21.024;2023-12-28T08:59:36;100227.81;;;4.55;64.59
22031;BME280;11179;52.106;21.024;2023-12-28T09:02:01;100243.41;;;4.66;64.51
22031;BME280;11179;52.106;21.024;2023-12-28T09:04:26;100235.59;;;4.76;64.38
22031;BME280;11179;52.106;21.024;2023-12-28T09:06:52;100227.78;;;4.80;64.18
22031;BME280;11179;52.106;21.024;2023-12-28T09:09:18;100228.81;;;4.86;64.34
22031;BME280;11179;52.106;21.024;2023-12-28T09:11:43;100227.66;;;4.93;64.25
22031;BME280;11179;52.106;21.024;2023-12-28T09:14:08;100217.88;;;4.92;64.12
22031;BME280;11179;52.106;21.024;2023-12-28T09:16:34;100206.69;;;5.00;63.70
22031;BME280;11179;52.106;21.024;2023-12-28T09:19:00;100211.81;;;5.08;63.76
22031;BME280;11179;52.106;21.024;2023-12-28T09:21:26;100218.03;;;5.15;63.83
22031;BME280;11179;52.106;21.024;2023-12-28T09:23:51;100205.88;;;5.18;63.66
22031;BME280;11179;52.106;21.024;2023-12-28T09:26:22;100216.00;;;5.29;63.50
22031;BME280;11179;52.106;21.024;2023-12-28T09:28:48;100213.03;;;5.31;63.56
22031;BME280;11179;52.106;21.024;2023-12-28T09:31:13;100208.50;;;5.43;63.40
22031;BME280;11179;52.106;21.024;2023-12-28T09:33:38;100207.78;;;5.47;63.40
22031;BME280;11179;52.106;21.024;2023-12-28T09:36:04;100210.94;;;5.63;63.22
22031;BME280;11179;52.106;21.024;2023-12-28T09:38:35;100214.44;;;5.70;63.28
22031;BME280;11179;52.106;21.024;2023-12-28T09:41:13;100221.44;;;5.77;63.07
22031;BME280;11179;52.106;21.024;2023-12-28T09:44:00;100217.81;;;5.83;62.91
22031;BME280;11179;52.106;21.024;2023-12-28T09:46:30;100192.44;;;5.83;62.60
22031;BME280;11179;52.106;21.024;2023-12-28T09:48:58;100201.81;;;5.87;62.33
22031;BME280;11179;52.106;21.024;2023-12-28T09:51:24;100206.81;;;5.90;62.21
22031;BME280;11179;52.106;21.024;2023-12-28T09:53:50;100176.72;;;5.85;62.09
22031;BME280;11179;52.106;21.024;2023-12-28T09:56:16;100209.78;;;6.00;62.31
22031;BME280;11179;52.106;21.024;2023-12-28T09:58:42;100211.00;;;6.04;62.43
22031;BME280;11179;52.106;21.024;2023-12-28T10:01:12;100197.50;;;6.09;62.65
22031;BME280;11179;52.106;21.024;2023-12-28T10:03:50;100192.06;;;6.09;62.71
22031;BME280;11179;52.106;21.024;2023-12-28T10:06:16;100209.38;;;6.27;62.86
22031;BME280;11179;52.106;21.024;2023-12-28T10:08:45;100217.75;;;6.32;63.06
22031;BME280;11179;52.106;21.024;2023-12-28T10:11:14;100205.19;;;6.42;62.90
22031;BME280;11179;52.106;21.024;2023-12-28T10:13:41;100205.09;;;6.49;62.85
22031;BME280;11179;52.106;21.024;2023-12-28T10:16:08;100207.69;;;6.55;62.38
22031;BME280;11179;52.106;21.024;2023-12-28T10:18:34;100216.84;;;6.61;62.26
22031;BME280;11179;52.106;21.024;2023-12-28T10:21:00;100219.56;;;6.61;62.15
22031;BME280;11179;52.106;21.024;2023-12-28T10:23:25;100212.91;;;6.57;62.05
22031;BME280;11179;52.106;21.024;2023-12-28T10:25:51;100218.03;;;6.65;62.16
22031;BME280;11179;52.106;21.024;2023-12-28T10:28:18;100211.97;;;6.63;61.66
22031;BME280;11179;52.106;21.024;2023-12-28T10:30:45;100195.38;;;6.65;61.52
22031;BME280;11179;52.106;21.024;2023-12-28T10:33:10;100202.38;;;6.72;61.25
22031;BME280;11179;52.106;21.024;2023-12-28T10:35:38;100200.09;;;6.81;61.01
22031;BME280;11179;52.106;21.024;2023-12-28T10:38:04;100188.94;;;6.82;61.14
22031;BME280;11179;52.106;21.024;2023-12-28T10:40:36;100205.09;;;6.84;60.71
22031;BME280;11179;52.106;21.024;2023-12-28T10:43:06;100178.63;;;6.84;60.68
22031;BME280;11179;52.106;21.024;2023-12-28T10:45:35;100179.81;;;6.88;60.75
22031;BME280;11179;52.106;21.024;2023-12-28T10:48:12;100191.44;;;6.96;60.66
22031;BME280;11179;52.106;21.024;2023-12-28T10:50:48;100194.75;;;6.98;60.59
22031;BME280;11179;52.106;21.024;2023-12-28T10:53:37;100204.00;;;6.97;60.69
22031;BME280;11179;52.106;21.024;2023-12-28T10:56:20;100209.84;;;7.00;60.45
22031;BME280;11179;52.106;21.024;2023-12-28T10:58:53;100204.13;;;7.02;60.45
22031;BME280;11179;52.106;21.024;2023-12-28T11:01:24;100198.56;;;6.97;60.72
22031;BME280;11179;52.106;21.024;2023-12-28T11:06:42;100201.41;;;7.02;61.09
22031;BME280;11179;52.106;21.024;2023-12-28T11:09:09;100201.28;;;6.97;61.13
22031;BME280;11179;52.106;21.024;2023-12-28T11:11:36;100201.88;;;6.99;60.95
22031;BME280;11179;52.106;21.024;2023-12-28T11:14:05;100179.00;;;6.88;61.12
22031;BME280;11179;52.106;21.024;2023-12-28T11:16:32;100188.38;;;6.92;61.27
22031;BME280;11179;52.106;21.024;2023-12-28T11:18:59;100204.84;;;6.97;61.56
22031;BME280;11179;52.106;21.024;2023-12-28T11:21:25;100202.34;;;6.96;61.68
22031;BME280;11179;52.106;21.024;2023-12-28T11:23:51;100200.69;;;6.94;61.99
22031;BME280;11179;52.106;21.024;2023-12-28T11:26:20;100210.06;;;6.99;62.36
22031;BME280;11179;52.106;21.024;2023-12-28T11:28:46;100190.75;;;6.88;62.30
22031;BME280;11179;52.106;21.024;2023-12-28T11:31:15;100208.28;;;6.92;62.47
22031;BME280;11179;52.106;21.024;2023-12-28T11:33:50;100194.91;;;6.91;62.52
22031;BME280;11179;52.106;21.024;2023-12-28T11:37:04;100197.50;;;6.98;62.68
22031;BME280;11179;52.106;21.024;2023-12-28T11:39:36;100202.72;;;6.87;62.75
22031;BME280;11179;52.106;21.024;2023-12-28T11:42:03;100216.47;;;6.92;62.88
22031;BME280;11179;52.106;21.024;2023-12-28T11:44:37;100213.75;;;6.92;62.99
22031;BME280;11179;52.106;21.024;2023-12-28T11:47:30;100220.03;;;6.93;63.18
22031;BME280;11179;52.106;21.024;2023-12-28T11:50:06;100202.59;;;6.82;63.76
22031;BME280;11179;52.106;21.024;2023-12-28T11:52:32;100201.19;;;6.91;64.07
22031;BME280;11179;52.106;21.024;2023-12-28T11:54:58;100203.31;;;6.89;64.39
22031;BME280;11179;52.106;21.024;2023-12-28T11:57:25;100208.19;;;6.87;64.35
22031;BME280;11179;52.106;21.024;2023-12-28T11:59:55;100197.88;;;6.89;64.65
22031;BME280;11179;52.106;21.024;2023-12-28T12:02:21;100208.41;;;6.86;64.76
22031;BME280;11179;52.106;21.024;2023-12-28T12:04:46;100196.44;;;6.87;65.06
22031;BME280;11179;52.106;21.024;2023-12-28T12:07:12;100186.00;;;6.72;65.35
22031;BME280;11179;52.106;21.024;2023-12-28T12:09:40;100194.41;;;6.82;65.54
22031;BME280;11179;52.106;21.024;2023-12-28T12:12:09;100178.50;;;6.79;65.81
22031;BME280;11179;52.106;21.024;2023-12-28T12:14:35;100186.13;;;6.77;65.79
22031;BME280;11179;52.106;21.024;2023-12-28T12:17:00;100195.59;;;6.86;66.38
22031;BME280;11179;52.106;21.024;2023-12-28T12:19:26;100162.50;;;6.71;66.33
22031;BME280;11179;52.106;21.024;2023-12-28T12:21:56;100179.47;;;6.85;66.48
22031;BME280;11179;52.106;21.024;2023-12-28T12:24:24;100172.47;;;6.77;66.51
22031;BME280;11179;52.106;21.024;2023-12-28T12:27:02;100110.47;;;6.38;66.51
22031;BME280;11179;52.106;21.024;2023-12-28T12:29:29;100129.53;;;6.61;66.73
22031;BME280;11179;52.106;21.024;2023-12-28T12:31:58;100137.34;;;6.69;66.36
22031;BME280;11179;52.106;21.024;2023-12-28T12:34:23;100137.47;;;6.74;66.32
22031;BME280;11179;52.106;21.024;2023-12-28T12:36:49;100155.25;;;6.88;66.40
22031;BME280;11179;52.106;21.024;2023-12-28T12:39:17;100185.72;;;7.09;66.32
22031;BME280;11179;52.106;21.024;2023-12-28T12:41:45;100186.91;;;7.13;66.18
22031;BME280;11179;52.106;21.024;2023-12-28T12:44:11;100180.47;;;7.19;66.23
22031;BME280;11179;52.106;21.024;2023-12-28T12:46:39;100191.75;;;7.22;66.19
22031;BME280;11179;52.106;21.024;2023-12-28T12:49:05;100178.44;;;7.26;66.01
22031;BME280;11179;52.106;21.024;2023-12-28T12:51:30;100193.78;;;7.27;65.95
22031;BME280;11179;52.106;21.024;2023-12-28T12:54:00;100189.50;;;7.31;65.97